Time;durP1;ratioP1;P1;durP2;ratioP2;P2;SDS_P1;SDS_P2;PMS_P1;PMS_P2;Temp;Humidity;BMP_temperature;BMP_pressure;BME280_temperature;BME280_humidity;BME280_pressure;Samples;Min_cycle;Max_cycle;Signal;HPM_P1;HPM_P2
2021/06/29 00:01:09;;;;;;;17.15;5.00;;;;;;;17.94;83.35;99206.88;1662567;86;21460;-77
2021/06/29 00:03:35;;;;;;;25.25;5.58;;;;;;;17.91;83.80;99206.23;1662285;86;21025;-76
2021/06/29 00:06:02;;;;;;;15.85;4.58;;;;;;;17.83;84.27;99208.71;1662328;86;20978;-75
2021/06/29 00:08:29;;;;;;;8.20;4.45;;;;;;;17.75;84.65;99202.83;1662543;86;21104;-74
2021/06/29 00:10:55;;;;;;;6.97;4.55;;;;;;;17.68;85.23;99209.65;1662256;86;21538;-75
2021/06/29 00:13:22;;;;;;;9.00;4.80;;;;;;;17.61;85.19;99203.95;1662504;84;20977;-76
2021/06/29 00:15:49;;;;;;;10.35;4.15;;;;;;;17.60;85.20;99208.70;1662235;86;20937;-76
2021/06/29 00:18:16;;;;;;;11.65;4.25;;;;;;;17.61;85.41;99207.52;1662479;86;20993;-76
2021/06/29 00:20:42;;;;;;;8.85;4.20;;;;;;;17.56;85.95;99205.64;1662264;86;21140;-76
2021/06/29 00:23:08;;;;;;;8.50;5.20;;;;;;;17.47;86.56;99207.27;1662521;86;21441;-75
2021/06/29 00:25:35;;;;;;;8.30;4.78;;;;;;;17.38;87.07;99206.13;1662353;86;21025;-76
2021/06/29 00:28:01;;;;;;;9.85;4.33;;;;;;;17.34;87.56;99214.17;1662599;86;21556;-75
2021/06/29 00:30:28;;;;;;;10.32;4.55;;;;;;;17.31;88.08;99214.35;1662453;86;21516;-75
2021/06/29 00:32:54;;;;;;;7.10;4.60;;;;;;;17.28;88.33;99214.29;1662663;86;21108;-76
2021/06/29 00:35:20;;;;;;;9.70;5.10;;;;;;;17.26;88.44;99211.08;1662272;86;20969;-76
2021/06/29 00:37:46;;;;;;;6.70;4.15;;;;;;;17.26;88.69;99217.43;1662636;86;20941;-76
2021/06/29 00:40:13;;;;;;;5.25;4.30;;;;;;;17.25;88.85;99210.86;1662499;86;21032;-76
2021/06/29 00:42:41;;;;;;;6.97;4.50;;;;;;;17.21;89.13;99212.77;1662462;86;21016;-75
2021/06/29 00:45:10;;;;;;;6.10;4.40;;;;;;;17.17;89.71;99214.09;1662370;86;21146;-75
2021/06/29 00:47:36;;;;;;;7.45;4.33;;;;;;;17.13;90.08;99214.02;1662422;86;20979;-76
2021/06/29 00:50:05;;;;;;;9.05;4.22;;;;;;;17.10;90.56;99214.75;1662749;86;21476;-75
2021/06/29 00:52:31;;;;;;;8.85;4.47;;;;;;;17.09;91.18;99209.57;1662350;86;20993;-76
2021/06/29 00:54:57;;;;;;;5.45;4.40;;;;;;;17.10;91.95;99214.75;1662550;86;21079;-75
2021/06/29 00:57:24;;;;;;;12.63;4.85;;;;;;;17.11;92.11;99217.74;1662496;86;21737;-75
2021/06/29 00:59:50;;;;;;;12.20;4.80;;;;;;;17.13;91.79;99219.56;1662500;86;20927;-75
2021/06/29 01:02:16;;;;;;;7.33;4.67;;;;;;;17.18;91.19;99220.44;1662410;86;21025;-75
2021/06/29 01:04:43;;;;;;;8.05;4.85;;;;;;;17.22;90.89;99217.95;1662612;86;21871;-75
2021/06/29 01:07:10;;;;;;;5.60;4.40;;;;;;;17.23;90.99;99212.62;1662359;86;20977;-76
2021/06/29 01:09:38;;;;;;;8.53;4.72;;;;;;;17.25;91.39;99224.73;1635955;86;22187;-75
2021/06/29 01:12:07;;;;;;;6.45;4.60;;;;;;;17.24;91.39;99218.38;1662261;86;21009;-75
2021/06/29 01:14:34;;;;;;;13.55;5.22;;;;;;;17.28;91.18;99221.22;1662373;86;21055;-75
2021/06/29 01:17:03;;;;;;;8.53;4.97;;;;;;;17.30;91.11;99220.27;1662400;86;20941;-75
2021/06/29 01:19:50;;;;;;;9.70;4.90;;;;;;;17.32;91.04;99221.50;1662317;86;20929;-75
2021/06/29 01:22:11;;;;;;;7.33;5.03;;;;;;;17.36;90.93;99227.09;1660866;86;21337;-75
2021/06/29 01:24:39;;;;;;;9.15;5.20;;;;;;;17.37;90.73;99232.86;1662364;86;21029;-75
2021/06/29 01:29:48;;;;;;;10.55;4.85;;;;;;;17.42;90.41;99229.78;1662303;86;20933;-75
2021/06/29 01:32:17;;;;;;;8.10;5.35;;;;;;;17.41;90.26;99222.63;1660981;86;21020;-76
2021/06/29 01:34:44;;;;;;;7.72;4.90;;;;;;;17.40;90.49;99223.21;1662315;86;21147;-76
2021/06/29 01:37:11;;;;;;;5.62;4.60;;;;;;;17.43;90.18;99226.64;1662285;86;20957;-75
2021/06/29 01:39:37;;;;;;;5.78;4.75;;;;;;;17.48;90.31;99229.69;1662294;86;21021;-76
2021/06/29 01:42:05;;;;;;;9.85;4.75;;;;;;;17.49;90.40;99227.13;1662330;86;21635;-75
2021/06/29 01:44:34;;;;;;;9.33;4.97;;;;;;;17.48;90.09;99223.55;1662603;86;20929;-75
2021/06/29 01:47:03;;;;;;;8.60;4.92;;;;;;;17.51;89.58;99217.85;1662341;86;21114;-75
2021/06/29 01:49:28;;;;;;;6.80;4.92;;;;;;;17.54;89.74;99218.50;1662215;86;20926;-75
2021/06/29 01:51:55;;;;;;;10.98;4.87;;;;;;;17.55;89.52;99224.27;1657596;85;21615;-74
2021/06/29 01:54:21;;;;;;;8.20;5.05;;;;;;;17.57;89.27;99220.53;1619485;88;20965;-74
2021/06/29 01:56:50;;;;;;;7.70;5.42;;;;;;;17.57;89.16;99216.37;1619273;88;21009;-74
2021/06/29 01:59:22;;;;;;;20.27;5.72;;;;;;;17.58;88.88;99222.14;1619007;88;21608;-74
2021/06/29 02:01:46;;;;;;;7.50;5.47;;;;;;;17.60;88.55;99221.77;1637511;86;21004;-75
2021/06/29 02:04:13;;;;;;;6.72;4.75;;;;;;;17.63;88.37;99219.64;1619638;88;20891;-74
2021/06/29 02:06:40;;;;;;;9.55;5.12;;;;;;;17.65;88.19;99222.30;1619271;88;20977;-75
2021/06/29 02:09:09;;;;;;;7.35;4.85;;;;;;;17.65;88.18;99219.52;1619605;88;21527;-75
2021/06/29 02:11:37;;;;;;;8.70;5.65;;;;;;;17.66;88.03;99220.32;1618831;88;21771;-76
2021/06/29 02:14:03;;;;;;;7.08;5.42;;;;;;;17.65;88.01;99216.74;1619391;88;21055;-75
2021/06/29 02:16:30;;;;;;;10.50;5.22;;;;;;;17.65;87.92;99216.74;1619414;88;20941;-75
2021/06/29 02:18:56;;;;;;;17.17;5.60;;;;;;;17.67;87.91;99225.50;1619278;88;20964;-73
2021/06/29 02:21:23;;;;;;;6.28;5.05;;;;;;;17.70;87.78;99223.37;1619281;88;20964;-74
2021/06/29 02:23:49;;;;;;;8.15;5.62;;;;;;;17.75;87.77;99223.06;1619271;88;21141;-74
2021/06/29 02:26:16;;;;;;;6.83;4.47;;;;;;;17.78;88.02;99219.55;1619210;88;21008;-72
2021/06/29 02:28:42;;;;;;;8.83;6.03;;;;;;;17.82;88.46;99222.38;1619231;88;20889;-73
2021/06/29 02:31:09;;;;;;;9.60;5.65;;;;;;;17.85;88.53;99220.84;1619235;88;20893;-72
2021/06/29 02:33:36;;;;;;;8.58;5.80;;;;;;;17.87;89.11;99228.20;1619332;88;20964;-74
2021/06/29 02:36:04;;;;;;;12.25;5.53;;;;;;;17.89;89.43;99223.89;1619249;88;21093;-77
2021/06/29 02:38:30;;;;;;;7.62;5.62;;;;;;;17.91;89.36;99222.13;1619202;88;20957;-78
2021/06/29 02:40:56;;;;;;;6.85;5.15;;;;;;;17.96;88.82;99224.55;1619192;88;21491;-77
2021/06/29 02:43:22;;;;;;;9.83;5.62;;;;;;;17.98;88.42;99216.06;1622545;88;21016;-76
2021/06/29 02:45:49;;;;;;;9.18;5.03;;;;;;;18.01;88.67;99218.09;1619562;88;20917;-77
2021/06/29 02:48:15;;;;;;;7.72;5.70;;;;;;;18.03;89.04;99214.36;1619295;88;21799;-77
2021/06/29 02:50:42;;;;;;;7.97;5.33;;;;;;;18.05;89.09;99216.18;1619416;88;20949;-71
2021/06/29 02:53:08;;;;;;;13.93;5.72;;;;;;;18.09;88.65;99217.63;1619282;88;20965;-76
2021/06/29 02:55:34;;;;;;;9.63;6.28;;;;;;;18.13;87.96;99222.64;1619355;88;20964;-73
2021/06/29 02:58:00;;;;;;;11.18;6.00;;;;;;;18.18;87.32;99215.37;1619419;88;21567;-77
2021/06/29 03:00:27;;;;;;;11.55;5.83;;;;;;;18.21;87.01;99215.22;1619433;88;21111;-77
2021/06/29 03:02:53;;;;;;;9.05;5.55;;;;;;;18.22;87.09;99211.27;1625454;85;21841;-73
2021/06/29 03:05:20;;;;;;;11.95;5.45;;;;;;;18.22;87.70;99214.84;1638394;84;20889;-72
2021/06/29 03:07:46;;;;;;;8.58;5.67;;;;;;;18.22;87.48;99209.88;1619249;88;20937;-81
2021/06/29 03:10:13;;;;;;;8.95;5.85;;;;;;;18.23;87.53;99206.72;1619168;88;21440;-87
2021/06/29 03:12:39;;;;;;;9.05;5.22;;;;;;;18.27;87.92;99209.55;1619144;88;21157;-72
2021/06/29 03:15:06;;;;;;;9.15;5.37;;;;;;;18.28;87.41;99211.95;1622492;85;21017;-79
2021/06/29 03:17:33;;;;;;;7.45;4.97;;;;;;;18.29;87.06;99214.15;1669799;85;20956;-82
2021/06/29 03:20:00;;;;;;;8.50;5.22;;;;;;;18.31;86.92;99217.36;1665259;85;20989;-75
2021/06/29 03:22:27;;;;;;;9.63;5.35;;;;;;;18.33;86.48;99224.14;1663546;85;21029;-78
2021/06/29 03:24:54;;;;;;;6.72;4.80;;;;;;;18.37;86.17;99222.80;1662998;85;21080;-75
2021/06/29 03:27:20;;;;;;;7.47;5.10;;;;;;;18.38;85.95;99227.98;1662322;86;20993;-74
2021/06/29 03:29:46;;;;;;;8.78;5.72;;;;;;;18.39;85.77;99229.59;1662181;86;20941;-72
2021/06/29 03:32:13;;;;;;;9.83;5.58;;;;;;;18.40;85.72;99225.63;1662521;84;21441;-78
2021/06/29 03:34:39;;;;;;;8.88;5.03;;;;;;;18.43;85.77;99229.05;1662201;86;20969;-77
2021/06/29 03:37:06;;;;;;;6.40;4.97;;;;;;;18.49;85.80;99226.13;1662238;86;21575;-77
2021/06/29 03:39:33;;;;;;;8.68;5.08;;;;;;;18.55;85.37;99229.97;1662241;86;21032;-76
2021/06/29 03:41:59;;;;;;;9.18;5.47;;;;;;;18.59;85.12;99228.84;1662534;86;21491;-80
2021/06/29 03:44:26;;;;;;;17.27;5.33;;;;;;;18.65;85.32;99236.30;1662306;86;21005;-76
2021/06/29 03:46:52;;;;;;;8.75;5.50;;;;;;;18.70;85.23;99236.77;1662580;86;21476;-79
2021/06/29 03:49:19;;;;;;;7.17;5.30;;;;;;;18.78;85.53;99241.83;1662302;86;21790;-79
2021/06/29 03:51:45;;;;;;;8.00;5.15;;;;;;;18.85;84.76;99241.13;1661899;85;20995;-80
2021/06/29 03:54:11;;;;;;;9.70;5.55;;;;;;;18.90;84.65;99236.61;1661411;86;21615;-81
2021/06/29 03:56:38;;;;;;;9.85;5.40;;;;;;;18.94;84.25;99240.24;1660988;85;21081;-78
2021/06/29 03:59:07;;;;;;;6.92;5.20;;;;;;;19.00;84.30;99238.73;1661116;86;21057;-79
2021/06/29 04:01:34;;;;;;;6.40;4.75;;;;;;;19.06;83.53;99242.16;1662181;86;21580;-79
2021/06/29 04:04:00;;;;;;;9.35;5.22;;;;;;;19.12;83.29;99246.20;1662049;86;20930;-85
2021/06/29 04:06:29;;;;;;;7.37;5.53;;;;;;;19.16;82.29;99240.68;1662116;86;21056;-78
2021/06/29 04:08:56;;;;;;;7.65;5.35;;;;;;;19.20;81.28;99246.28;1662352;86;21001;-80
2021/06/29 04:11:24;;;;;;;5.87;4.92;;;;;;;19.22;81.34;99246.11;1662501;86;20898;-76
2021/06/29 04:13:50;;;;;;;6.42;4.83;;;;;;;19.27;81.31;99249.95;1662659;86;21094;-81
2021/06/29 04:16:17;;;;;;;9.63;4.97;;;;;;;19.34;81.23;99250.02;1662303;86;20976;-80
2021/06/29 04:18:43;;;;;;;7.72;5.28;;;;;;;19.41;80.59;99246.52;1662605;86;20958;-80
2021/06/29 04:21:10;;;;;;;7.03;5.10;;;;;;;19.46;80.13;99251.15;1662277;86;20973;-81
2021/06/29 04:23:38;;;;;;;7.83;5.28;;;;;;;19.53;80.27;99243.49;1662461;86;21033;-78
2021/06/29 04:26:04;;;;;;;9.88;5.37;;;;;;;19.58;80.48;99244.53;1662200;86;21509;-77
2021/06/29 04:28:31;;;;;;;6.10;5.50;;;;;;;19.65;80.64;99240.39;1662583;86;21431;-77
2021/06/29 04:30:57;;;;;;;5.87;4.85;;;;;;;19.73;80.33;99242.06;1662167;86;21007;-77
2021/06/29 04:33:24;;;;;;;11.50;5.00;;;;;;;19.82;79.66;99242.34;1659679;85;21623;-78
2021/06/29 04:35:50;;;;;;;5.75;5.00;;;;;;;19.92;79.51;99243.02;1662338;86;21009;-78
2021/06/29 04:38:16;;;;;;;4.87;4.37;;;;;;;19.99;78.99;99244.47;1662741;86;22106;-78
2021/06/29 04:40:43;;;;;;;6.47;5.03;;;;;;;20.04;76.70;99240.73;1665055;85;21032;-79
2021/06/29 04:43:09;;;;;;;12.85;5.42;;;;;;;20.06;76.57;99236.97;1669302;85;21584;-78
2021/06/29 04:45:35;;;;;;;7.17;4.47;;;;;;;20.09;77.08;99240.97;1673179;85;21025;-76
2021/06/29 04:48:02;;;;;;;6.53;5.00;;;;;;;20.16;76.80;99239.63;1665208;85;20886;-74
2021/06/29 04:50:28;;;;;;;6.92;5.37;;;;;;;20.21;76.07;99235.09;1668988;85;21776;-74
2021/06/29 04:52:55;;;;;;;6.95;5.10;;;;;;;20.27;76.24;99240.48;1679506;85;20987;-80
2021/06/29 04:55:21;;;;;;;5.12;4.25;;;;;;;20.35;75.82;99239.34;1690254;85;20896;-74
2021/06/29 04:57:47;;;;;;;5.22;4.72;;;;;;;20.43;75.15;99231.26;1690373;84;20984;-74
2021/06/29 05:00:17;;;;;;;6.78;4.30;;;;;;;20.51;74.96;99232.69;1690245;85;20943;-75
2021/06/29 05:02:43;;;;;;;6.15;4.35;;;;;;;20.56;74.24;99235.91;1690468;84;21419;-80
2021/06/29 05:05:10;;;;;;;7.28;4.37;;;;;;;20.64;74.29;99235.36;1690255;84;20963;-73
2021/06/29 05:07:39;;;;;;;7.60;4.35;;;;;;;20.73;74.80;99231.02;1689804;84;20991;-74
2021/06/29 05:10:08;;;;;;;10.63;4.62;;;;;;;20.84;74.16;99229.65;1689916;85;20987;-74
2021/06/29 05:12:37;;;;;;;7.22;4.87;;;;;;;20.91;71.86;99228.88;1690196;85;20908;-77
2021/06/29 05:15:06;;;;;;;5.50;4.33;;;;;;;20.94;72.87;99227.50;1689743;85;21762;-79
2021/06/29 05:17:32;;;;;;;7.58;4.00;;;;;;;21.06;72.86;99230.53;1690104;84;20986;-75
2021/06/29 05:19:59;;;;;;;6.20;4.45;;;;;;;21.15;72.79;99228.17;1690535;83;20852;-80
2021/06/29 05:22:25;;;;;;;7.65;4.05;;;;;;;21.26;72.55;99229.63;1690181;84;20911;-74
2021/06/29 05:24:51;;;;;;;4.83;4.17;;;;;;;21.34;72.09;99236.23;1690678;85;20927;-72
2021/06/29 05:27:18;;;;;;;4.30;3.90;;;;;;;21.41;71.55;99234.03;1690311;85;21746;-75
2021/06/29 05:29:44;;;;;;;6.35;4.28;;;;;;;21.49;71.50;99234.84;1690314;85;20978;-71
2021/06/29 05:32:10;;;;;;;3.85;3.37;;;;;;;21.56;70.83;99230.06;1690236;85;21311;-82
2021/06/29 05:34:37;;;;;;;5.90;4.22;;;;;;;21.66;70.20;99231.28;1690509;85;20990;-83
2021/06/29 05:37:04;;;;;;;7.58;4.50;;;;;;;21.73;70.28;99229.29;1690159;84;20903;-76
2021/06/29 05:39:30;;;;;;;9.93;4.03;;;;;;;21.82;69.97;99230.89;1690501;84;21094;-73
2021/06/29 05:41:56;;;;;;;5.83;4.00;;;;;;;21.88;69.10;99230.09;1690109;84;20943;-79
2021/06/29 05:44:23;;;;;;;16.00;4.78;;;;;;;21.97;68.85;99229.67;1690382;83;21410;-83
2021/06/29 05:46:51;;;;;;;6.50;4.03;;;;;;;22.06;69.08;99227.30;1690222;85;20908;-78
2021/06/29 05:49:17;;;;;;;4.55;3.42;;;;;;;22.16;68.39;99223.70;1690689;84;20931;-82
2021/06/29 05:51:46;;;;;;;7.62;3.72;;;;;;;22.22;67.08;99222.69;1690279;85;21110;-75
2021/06/29 05:54:13;;;;;;;4.42;3.72;;;;;;;22.24;67.42;99221.09;1690369;84;20967;-77
2021/06/29 05:56:40;;;;;;;5.20;4.40;;;;;;;22.32;66.75;99218.48;1690366;84;20966;-77
2021/06/29 05:59:08;;;;;;;8.00;4.17;;;;;;;22.37;67.07;99220.08;1690064;85;21023;-77
2021/06/29 06:01:35;;;;;;;4.78;3.70;;;;;;;22.47;67.88;99215.66;1662785;85;20947;-78
2021/06/29 06:04:01;;;;;;;5.62;3.60;;;;;;;22.59;67.05;99219.39;1690306;84;21121;-73
2021/06/29 06:06:27;;;;;;;4.70;4.08;;;;;;;22.70;67.04;99219.55;1690289;84;20896;-73
2021/06/29 06:08:54;;;;;;;4.97;4.20;;;;;;;22.77;66.62;99224.93;1690153;83;21635;-73
2021/06/29 06:11:20;;;;;;;5.67;4.25;;;;;;;22.83;66.18;99222.74;1690329;85;20899;-71
2021/06/29 06:13:47;;;;;;;5.40;4.00;;;;;;;22.90;65.69;99218.52;1690192;85;20959;-78
2021/06/29 06:16:14;;;;;;;6.03;3.52;;;;;;;23.00;65.69;99224.67;1690408;85;21780;-70
2021/06/29 06:18:42;;;;;;;6.50;3.95;;;;;;;23.05;64.43;99230.45;1690077;85;20860;-72
2021/06/29 06:21:09;;;;;;;5.33;3.58;;;;;;;23.10;63.39;99221.63;1690510;85;20896;-72
2021/06/29 06:23:35;;;;;;;9.35;4.40;;;;;;;23.12;63.90;99222.59;1690150;85;21530;-78
2021/06/29 06:26:01;;;;;;;7.60;4.72;;;;;;;23.18;64.26;99230.76;1690356;84;20860;-76
2021/06/29 06:28:28;;;;;;;7.35;3.90;;;;;;;23.26;63.81;99232.31;1690163;84;21065;-72
2021/06/29 06:30:54;;;;;;;5.20;3.87;;;;;;;23.34;63.33;99240.27;1690147;84;20983;-75
2021/06/29 06:33:21;;;;;;;4.65;3.27;;;;;;;23.41;62.37;99239.44;1665701;85;20962;-70
2021/06/29 06:35:49;;;;;;;4.62;3.80;;;;;;;23.46;63.36;99234.00;1635170;87;20977;-70
2021/06/29 06:38:15;;;;;;;4.10;3.12;;;;;;;23.52;62.67;99226.16;1609576;87;20989;-70
2021/06/29 06:40:42;;;;;;;7.97;3.30;;;;;;;23.56;61.88;99233.17;1635201;86;21517;-76
2021/06/29 06:43:09;;;;;;;4.80;2.92;;;;;;;23.63;61.95;99234.52;1635373;87;21521;-72
2021/06/29 06:45:35;;;;;;;4.00;3.60;;;;;;;23.72;61.53;99237.63;1635276;86;20989;-72
2021/06/29 06:48:02;;;;;;;3.85;3.30;;;;;;;23.81;62.21;99233.77;1635301;87;20977;-75
2021/06/29 06:50:28;;;;;;;5.67;3.20;;;;;;;23.91;60.89;99237.08;1635323;86;20929;-70
2021/06/29 06:52:54;;;;;;;3.40;2.77;;;;;;;23.94;60.26;99237.66;1635320;86;21847;-73
2021/06/29 06:55:25;;;;;;;3.47;3.02;;;;;;;24.02;59.79;99238.40;1635122;87;20934;-75
2021/06/29 06:57:49;;;;;;;4.67;3.75;;;;;;;24.09;59.72;99238.95;1635007;87;20949;-76
2021/06/29 07:00:16;;;;;;;5.17;3.58;;;;;;;24.12;60.57;99239.52;1654242;86;21014;-73
2021/06/29 07:02:44;;;;;;;4.37;3.08;;;;;;;24.20;60.62;99239.05;1662400;86;20897;-78
2021/06/29 07:05:11;;;;;;;4.10;3.20;;;;;;;24.31;60.53;99239.73;1662465;86;21088;-78
2021/06/29 07:07:38;;;;;;;6.65;4.00;;;;;;;24.45;59.73;99236.60;1662072;84;20926;-81
2021/06/29 07:10:06;;;;;;;3.90;3.55;;;;;;;24.53;58.07;99231.91;1662668;86;21079;-80
2021/06/29 07:12:32;;;;;;;3.98;3.12;;;;;;;24.56;58.67;99235.88;1662159;85;21480;-72
2021/06/29 07:14:59;;;;;;;4.05;3.30;;;;;;;24.56;57.89;99233.88;1662588;85;20929;-76
2021/06/29 07:17:25;;;;;;;5.97;3.50;;;;;;;24.58;57.73;99234.86;1662234;85;21131;-72
2021/06/29 07:19:52;;;;;;;5.67;3.45;;;;;;;24.60;57.29;99240.25;1662161;86;21521;-71
2021/06/29 07:22:18;;;;;;;4.10;3.10;;;;;;;24.65;57.35;99234.78;1662095;86;20965;-71
2021/06/29 07:24:45;;;;;;;3.83;3.17;;;;;;;24.74;58.40;99240.70;1662180;86;21041;-72
2021/06/29 07:27:12;;;;;;;3.12;2.83;;;;;;;24.87;57.79;99237.50;1662297;85;20928;-72
2021/06/29 07:29:38;;;;;;;6.42;3.25;;;;;;;25.00;57.24;99239.98;1662079;86;21198;-73
2021/06/29 07:32:05;;;;;;;6.17;3.77;;;;;;;25.13;57.51;99233.81;1662395;86;21046;-80
2021/06/29 07:34:32;;;;;;;4.25;2.95;;;;;;;25.28;56.10;99237.42;1662349;86;20945;-79
2021/06/29 07:36:59;;;;;;;3.58;3.15;;;;;;;25.39;57.89;99231.65;1662261;85;21005;-80
2021/06/29 07:39:27;;;;;;;4.83;2.92;;;;;;;25.58;57.56;99239.37;1662204;86;20973;-74
2021/06/29 07:41:53;;;;;;;3.95;3.17;;;;;;;25.81;55.80;99239.26;1662640;85;21713;-77
2021/06/29 07:44:22;;;;;;;4.75;3.25;;;;;;;26.00;54.03;99235.70;1662345;84;21448;-78
2021/06/29 07:46:49;;;;;;;6.53;3.20;;;;;;;26.09;50.97;99227.52;1662354;84;20961;-81
2021/06/29 07:49:16;;;;;;;4.08;3.20;;;;;;;26.10;53.73;99230.52;1662303;86;21033;-76
2021/06/29 07:51:42;;;;;;;4.78;2.85;;;;;;;26.29;53.49;99224.14;1662605;86;21021;-76
2021/06/29 07:54:09;;;;;;;5.05;3.10;;;;;;;26.52;51.90;99232.41;1662433;86;21781;-76
2021/06/29 07:56:37;;;;;;;7.15;3.00;;;;;;;26.63;51.29;99229.55;1662378;86;20945;-81
2021/06/29 07:59:04;;;;;;;3.17;2.87;;;;;;;26.70;51.23;99228.61;1662389;85;21622;-85
2021/06/29 08:01:31;;;;;;;7.30;2.52;;;;;;;26.80;50.30;99227.61;1662279;85;20909;-86
2021/06/29 08:03:58;;;;;;;17.23;3.60;;;;;;;26.74;48.49;99223.70;1662401;86;20969;-73
2021/06/29 08:06:25;;;;;;;8.85;3.47;;;;;;;26.58;48.94;99229.25;1662213;86;22043;-90
2021/06/29 08:08:53;;;;;;;5.33;2.72;;;;;;;26.49;49.85;99233.27;1662259;86;20904;-89
2021/06/29 08:11:19;;;;;;;8.98;3.40;;;;;;;26.48;50.74;99224.03;1662374;86;20916;-89
2021/06/29 08:13:46;;;;;;;3.72;2.67;;;;;;;26.51;50.25;99223.17;1662334;86;20979;-90
2021/06/29 08:16:12;;;;;;;5.50;3.10;;;;;;;26.41;49.55;99224.78;1662404;86;21538;-87
2021/06/29 08:18:39;;;;;;;5.25;2.60;;;;;;;26.17;49.25;99226.78;1662311;86;21004;-87
2021/06/29 08:21:06;;;;;;;5.33;3.12;;;;;;;25.91;50.21;99227.84;1662321;86;21028;-81
2021/06/29 08:23:32;;;;;;;6.72;3.25;;;;;;;25.73;50.38;99225.92;1662626;86;20888;-84
2021/06/29 08:25:59;;;;;;;3.62;2.50;;;;;;;25.81;49.52;99221.78;1662334;85;20983;-87
2021/06/29 08:28:26;;;;;;;3.27;2.80;;;;;;;26.13;50.93;99224.03;1662348;86;21526;-85
2021/06/29 08:30:52;;;;;;;6.53;3.87;;;;;;;26.54;49.21;99221.52;1662344;86;21112;-87
2021/06/29 08:33:23;;;;;;;3.17;2.87;;;;;;;26.69;49.08;99212.95;1662470;85;21022;-75
2021/06/29 08:35:50;;;;;;;5.12;3.10;;;;;;;26.67;46.88;99223.84;1662360;86;21443;-79
2021/06/29 08:38:17;;;;;;;4.33;3.02;;;;;;;26.40;47.66;99214.75;1662565;86;20958;-80
2021/06/29 08:40:43;;;;;;;5.33;3.60;;;;;;;26.15;48.29;99221.59;1662366;86;21462;-76
2021/06/29 08:43:11;;;;;;;5.40;3.08;;;;;;;25.99;49.20;99225.70;1662588;86;21142;-72
2021/06/29 08:45:38;;;;;;;4.78;3.00;;;;;;;26.17;49.49;99219.14;1662277;85;21518;-74
2021/06/29 08:48:05;;;;;;;3.92;2.75;;;;;;;26.35;47.54;99225.89;1662637;86;21491;-73
2021/06/29 08:50:32;;;;;;;6.70;2.60;;;;;;;26.34;45.84;99219.28;1662386;86;20967;-70
2021/06/29 08:53:04;;;;;;;5.15;2.90;;;;;;;26.13;46.84;99229.66;1662574;86;21004;-84
2021/06/29 08:55:35;;;;;;;4.50;3.15;;;;;;;25.90;48.44;99222.03;1662428;86;20903;-82
2021/06/29 08:58:03;;;;;;;5.40;2.67;;;;;;;25.67;48.90;99234.66;1662642;86;20911;-75
2021/06/29 09:00:29;;;;;;;3.20;2.52;;;;;;;25.74;49.65;99226.72;1661255;84;21046;-75
2021/06/29 09:02:56;;;;;;;3.90;2.72;;;;;;;26.17;48.24;99225.38;1656190;86;21038;-75
2021/06/29 09:05:25;;;;;;;3.40;2.98;;;;;;;26.71;47.35;99213.31;1655952;86;21043;-76
2021/06/29 09:08:10;;;;;;;3.45;2.98;;;;;;;27.27;46.12;99204.27;1656395;86;21746;-75
2021/06/29 09:10:39;;;;;;;4.17;3.10;;;;;;;27.89;45.44;99200.20;1656383;86;21522;-76
2021/06/29 09:13:08;;;;;;;4.42;2.70;;;;;;;28.54;43.13;99202.94;1656253;86;21531;-77
2021/06/29 09:15:44;;;;;;;6.05;2.67;;;;;;;28.91;42.84;99200.06;1656246;86;20995;-72
2021/06/29 09:18:20;;;;;;;3.92;2.60;;;;;;;29.05;40.83;99189.76;1656218;86;20972;-83
2021/06/29 09:21:06;;;;;;;4.47;2.30;;;;;;;28.90;40.14;99182.95;1656253;86;21144;-80
2021/06/29 09:23:48;;;;;;;6.15;2.62;;;;;;;28.76;42.48;99179.13;1657694;83;21047;-85
2021/06/29 09:26:15;;;;;;;8.00;2.77;;;;;;;29.02;40.39;99175.73;1653413;83;21050;-83
2021/06/29 09:28:49;;;;;;;5.12;2.67;;;;;;;29.26;40.02;99174.19;1641573;84;21541;-74
2021/06/29 09:31:19;;;;;;;6.78;2.45;;;;;;;29.41;39.85;99173.94;1652125;86;21016;-78
2021/06/29 09:33:52;;;;;;;3.40;2.30;;;;;;;29.61;40.56;99174.30;1653300;85;21153;-82
2021/06/29 09:36:23;;;;;;;3.83;2.35;;;;;;;29.86;39.89;99166.58;1652297;86;20975;-79
2021/06/29 09:38:51;;;;;;;5.35;2.83;;;;;;;30.03;38.98;99170.08;1657578;86;21023;-81
2021/06/29 09:41:30;;;;;;;2.67;2.25;;;;;;;30.10;38.47;99166.98;1654217;86;21039;-80
2021/06/29 09:44:06;;;;;;;2.62;2.40;;;;;;;30.12;37.18;99165.10;1655007;86;20971;-81
2021/06/29 09:46:32;;;;;;;5.03;2.60;;;;;;;29.67;37.54;99165.42;1654468;86;21147;-78
2021/06/29 09:49:10;;;;;;;6.62;3.33;;;;;;;29.04;37.84;99163.36;1655589;86;21463;-80
2021/06/29 09:51:38;;;;;;;4.03;2.40;;;;;;;28.45;39.68;99169.70;1656584;86;21050;-82
2021/06/29 09:54:08;;;;;;;4.37;2.62;;;;;;;27.87;41.09;99169.63;1654066;86;21506;-81
2021/06/29 09:56:47;;;;;;;3.47;2.47;;;;;;;27.49;42.47;99159.48;1651524;86;21095;-81
2021/06/29 09:59:14;;;;;;;9.10;2.75;;;;;;;27.38;42.82;99151.89;1649611;86;21168;-79
2021/06/29 10:01:43;;;;;;;3.75;2.35;;;;;;;27.67;44.89;99155.47;1652313;86;21495;-79
2021/06/29 10:04:09;;;;;;;4.17;2.65;;;;;;;28.14;42.25;99150.98;1653511;86;20995;-80
2021/06/29 10:06:38;;;;;;;6.50;2.35;;;;;;;28.43;41.80;99158.68;1657043;86;21094;-79
2021/06/29 10:09:11;;;;;;;5.75;2.30;;;;;;;28.60;42.15;99153.94;1650196;86;21587;-77
2021/06/29 10:11:40;;;;;;;2.40;2.10;;;;;;;28.82;41.37;99148.50;1647725;86;21146;-78
2021/06/29 10:14:14;;;;;;;4.50;2.08;;;;;;;29.08;38.87;99151.34;1647062;86;20968;-79
2021/06/29 10:16:49;;;;;;;2.37;1.80;;;;;;;29.27;36.62;99154.57;1627198;86;20936;-79
2021/06/29 10:21:55;;;;;;;3.02;1.92;;;;;;;29.54;35.50;99146.42;1629465;86;21032;-79
2021/06/29 10:24:24;;;;;;;;;;;;;;;29.57;36.38;99137.03;1667494;85;21798;-80
2021/06/29 10:26:55;;;;;;;2.92;2.40;;;;;;;29.60;36.59;99138.16;1646639;86;20183;-78
2021/06/29 10:29:22;;;;;;;3.10;2.25;;;;;;;29.62;36.84;99134.25;1637541;86;21094;-78
2021/06/29 10:32:07;;;;;;;4.22;2.65;;;;;;;29.75;39.43;99138.48;1658495;85;21132;-80
2021/06/29 10:34:34;;;;;;;4.50;2.42;;;;;;;29.93;37.49;99131.59;1644099;86;21086;-79
2021/06/29 10:37:00;;;;;;;3.55;2.92;;;;;;;30.00;37.08;99135.62;1654664;86;21725;-79
2021/06/29 10:39:30;;;;;;;3.40;2.50;;;;;;;29.94;37.81;99140.88;1649495;86;21543;-79
2021/06/29 10:42:09;;;;;;;7.15;2.58;;;;;;;29.87;37.80;99136.25;1662689;86;20966;-78
2021/06/29 10:44:40;;;;;;;2.80;2.27;;;;;;;29.95;38.20;99138.20;1654979;86;47407;-79
2021/06/29 10:47:32;;;;;;;2.40;1.90;;;;;;;30.05;36.20;99139.25;1652512;86;21023;-80
2021/06/29 10:50:01;;;;;;;1.90;1.80;;;;;;;30.15;34.43;99135.26;1658862;85;21080;-80
2021/06/29 10:52:34;;;;;;;3.37;2.35;;;;;;;30.24;37.21;99126.05;1661718;86;20976;-80
2021/06/29 10:55:09;;;;;;;2.58;2.02;;;;;;;30.35;35.33;99127.09;1653452;86;21547;-79
2021/06/29 10:57:46;;;;;;;4.22;2.20;;;;;;;30.31;35.27;99129.25;1653870;85;21076;-78
2021/06/29 11:00:24;;;;;;;4.70;2.30;;;;;;;30.25;36.62;99127.64;1650700;86;20991;-79
2021/06/29 11:03:01;;;;;;;4.85;2.35;;;;;;;30.30;36.09;99113.52;1657483;86;21123;-80
2021/06/29 11:05:30;;;;;;;2.62;2.20;;;;;;;30.32;35.90;99119.51;1662494;86;20971;-79
2021/06/29 11:08:20;;;;;;;12.07;2.45;;;;;;;30.34;35.05;99121.26;1658443;86;20979;-80
2021/06/29 11:10:49;;;;;;;4.12;2.30;;;;;;;30.52;35.54;99122.19;1657982;85;21015;-81
2021/06/29 11:13:18;;;;;;;5.05;2.12;;;;;;;30.66;34.35;99110.95;1662905;86;21549;-81
2021/06/29 11:15:56;;;;;;;3.65;2.65;;;;;;;30.82;34.08;99108.53;1656381;86;21116;-79
2021/06/29 11:18:40;;;;;;;5.30;2.40;;;;;;;30.93;34.67;99101.81;1633597;86;21165;-81
2021/06/29 11:21:09;;;;;;;4.95;2.20;;;;;;;30.95;34.83;99112.06;1662256;85;21585;-79
2021/06/29 11:23:37;;;;;;;2.33;2.12;;;;;;;30.97;34.44;99108.14;1653389;86;21611;-81
2021/06/29 11:26:16;;;;;;;2.87;2.00;;;;;;;31.09;34.46;99110.71;1658436;84;20971;-79
2021/06/29 11:28:45;;;;;;;5.70;2.42;;;;;;;31.24;34.66;99110.94;1667278;86;21134;-79
2021/06/29 11:31:31;;;;;;;3.62;2.42;;;;;;;31.19;33.66;99109.53;1658094;85;21015;-79
2021/06/29 11:34:04;;;;;;;3.35;2.00;;;;;;;31.10;34.19;99109.45;1660746;85;21002;-81
2021/06/29 11:36:38;;;;;;;3.72;2.25;;;;;;;31.10;34.97;99102.37;1657997;85;21070;-79
2021/06/29 11:39:20;;;;;;;3.62;2.55;;;;;;;31.09;33.33;99108.67;1653049;86;21791;-79
2021/06/29 11:42:07;;;;;;;3.20;2.15;;;;;;;31.07;34.75;99106.92;1652841;86;21186;-81
2021/06/29 11:44:38;;;;;;;2.98;2.25;;;;;;;31.17;35.08;99107.79;1631081;86;21162;-79